sensor_id;sensor_type;location;lat;lon;timestamp;temperature;humidity
41922;DHT22;27609;51.002;5.354;2023-02-28T00:00:15;1.20;99.90
41922;DHT22;27609;51.002;5.354;2023-02-28T00:02:42;1.10;99.90
41922;DHT22;27609;51.002;5.354;2023-02-28T00:05:11;1.10;99.90
41922;DHT22;27609;51.002;5.354;2023-02-28T00:07:38;1.80;99.90
41922;DHT22;27609;51.002;5.354;2023-02-28T00:10:06;1.10;99.90
41922;DHT22;27609;51.002;5.354;2023-02-28T00:12:36;1.00;99.90
41922;DHT22;27609;51.002;5.354;2023-02-28T00:15:05;1.00;99.90
41922;DHT22;27609;51.002;5.354;2023-02-28T00:17:30;0.90;99.90
41922;DHT22;27609;51.002;5.354;2023-02-28T00:19:56;0.90;99.90
41922;DHT22;27609;51.002;5.354;2023-02-28T00:22:27;1.60;99.90
41922;DHT22;27609;51.002;5.354;2023-02-28T00:24:53;0.90;99.90
41922;DHT22;27609;51.002;5.354;2023-02-28T00:27:19;1.00;99.90
41922;DHT22;27609;51.002;5.354;2023-02-28T00:29:46;0.80;99.90
41922;DHT22;27609;51.002;5.354;2023-02-28T00:32:12;1.50;99.90
41922;DHT22;27609;51.002;5.354;2023-02-28T00:34:37;1.70;99.90
41922;DHT22;27609;51.002;5.354;2023-02-28T00:37:05;0.80;99.90
41922;DHT22;27609;51.002;5.354;2023-02-28T00:39:31;1.60;99.90
41922;DHT22;27609;51.002;5.354;2023-02-28T00:41:58;0.70;99.90
41922;DHT22;27609;51.002;5.354;2023-02-28T00:44:23;0.70;99.90
41922;DHT22;27609;51.002;5.354;2023-02-28T00:46:49;1.30;99.90
41922;DHT22;27609;51.002;5.354;2023-02-28T00:49:15;0.50;99.90
41922;DHT22;27609;51.002;5.354;2023-02-28T00:51:40;0.60;99.90
41922;DHT22;27609;51.002;5.354;2023-02-28T00:54:06;1.20;99.90
41922;DHT22;27609;51.002;5.354;2023-02-28T00:56:32;0.60;99.90
41922;DHT22;27609;51.002;5.354;2023-02-28T00:58:57;0.80;99.90
41922;DHT22;27609;51.002;5.354;2023-02-28T01:01:23;0.90;99.90
41922;DHT22;27609;51.002;5.354;2023-02-28T01:03:48;1.20;99.90
41922;DHT22;27609;51.002;5.354;2023-02-28T01:06:14;0.50;99.90
41922;DHT22;27609;51.002;5.354;2023-02-28T01:08:40;0.90;99.90
41922;DHT22;27609;51.002;5.354;2023-02-28T01:11:14;1.30;99.90
41922;DHT22;27609;51.002;5.354;2023-02-28T01:13:41;0.50;99.90
41922;DHT22;27609;51.002;5.354;2023-02-28T01:16:07;0.90;99.90
41922;DHT22;27609;51.002;5.354;2023-02-28T01:18:33;0.80;99.90
41922;DHT22;27609;51.002;5.354;2023-02-28T01:21:06;0.20;99.90
41922;DHT22;27609;51.002;5.354;2023-02-28T01:23:32;0.20;99.90
41922;DHT22;27609;51.002;5.354;2023-02-28T01:26:05;0.40;99.90
41922;DHT22;27609;51.002;5.354;2023-02-28T01:28:31;0.30;99.90
41922;DHT22;27609;51.002;5.354;2023-02-28T01:30:57;0.30;99.90
41922;DHT22;27609;51.002;5.354;2023-02-28T01:33:22;1.00;99.90
41922;DHT22;27609;51.002;5.354;2023-02-28T01:35:48;0.60;99.90
41922;DHT22;27609;51.002;5.354;2023-02-28T01:38:14;0.10;99.90
41922;DHT22;27609;51.002;5.354;2023-02-28T01:40:40;0.10;99.90
41922;DHT22;27609;51.002;5.354;2023-02-28T01:46:10;0.00;99.90
41922;DHT22;27609;51.002;5.354;2023-02-28T01:48:39;0.00;99.90
41922;DHT22;27609;51.002;5.354;2023-02-28T01:51:10;0.40;99.90
41922;DHT22;27609;51.002;5.354;2023-02-28T01:54:03;0.60;99.90
41922;DHT22;27609;51.002;5.354;2023-02-28T01:56:34;0.40;99.90
41922;DHT22;27609;51.002;5.354;2023-02-28T01:59:02;0.40;99.90
41922;DHT22;27609;51.002;5.354;2023-02-28T02:01:29;-0.10;99.90
41922;DHT22;27609;51.002;5.354;2023-02-28T02:04:01;0.80;99.90
41922;DHT22;27609;51.002;5.354;2023-02-28T02:06:38;0.50;99.90
41922;DHT22;27609;51.002;5.354;2023-02-28T02:09:05;0.30;99.90
41922;DHT22;27609;51.002;5.354;2023-02-28T02:11:32;-0.10;99.90
41922;DHT22;27609;51.002;5.354;2023-02-28T02:14:18;0.40;99.90
41922;DHT22;27609;51.002;5.354;2023-02-28T02:19:52;-0.20;99.90
41922;DHT22;27609;51.002;5.354;2023-02-28T02:36:51;0.80;99.90
41922;DHT22;27609;51.002;5.354;2023-02-28T02:42:24;-0.40;99.90
41922;DHT22;27609;51.002;5.354;2023-02-28T02:45:06;0.20;99.90
41922;DHT22;27609;51.002;5.354;2023-02-28T02:47:32;0.60;99.90
41922;DHT22;27609;51.002;5.354;2023-02-28T02:50:02;0.80;99.90
41922;DHT22;27609;51.002;5.354;2023-02-28T02:52:37;0.70;99.90
41922;DHT22;27609;51.002;5.354;2023-02-28T02:55:06;0.70;99.90
41922;DHT22;27609;51.002;5.354;2023-02-28T03:00:11;-0.20;99.90
41922;DHT22;27609;51.002;5.354;2023-02-28T03:02:38;-0.30;99.90
41922;DHT22;27609;51.002;5.354;2023-02-28T03:05:12;0.30;99.90
41922;DHT22;27609;51.002;5.354;2023-02-28T03:07:39;-0.40;99.90
41922;DHT22;27609;51.002;5.354;2023-02-28T03:10:33;-0.10;99.90
41922;DHT22;27609;51.002;5.354;2023-02-28T03:27:24;-0.50;99.90
41922;DHT22;27609;51.002;5.354;2023-02-28T03:32:40;-0.50;99.90
41922;DHT22;27609;51.002;5.354;2023-02-28T03:35:19;-0.50;99.90
41922;DHT22;27609;51.002;5.354;2023-02-28T03:37:50;-0.40;99.90
41922;DHT22;27609;51.002;5.354;2023-02-28T03:40:21;0.40;99.90
41922;DHT22;27609;51.002;5.354;2023-02-28T03:42:51;-0.20;99.90
41922;DHT22;27609;51.002;5.354;2023-02-28T03:45:26;0.50;99.90
41922;DHT22;27609;51.002;5.354;2023-02-28T03:48:07;0.40;99.90
41922;DHT22;27609;51.002;5.354;2023-02-28T03:50:38;0.20;99.90
41922;DHT22;27609;51.002;5.354;2023-02-28T03:53:19;1.10;99.90
41922;DHT22;27609;51.002;5.354;2023-02-28T03:55:54;0.30;99.90
41922;DHT22;27609;51.002;5.354;2023-02-28T04:01:25;0.50;99.90
41922;DHT22;27609;51.002;5.354;2023-02-28T04:03:53;0.60;99.90
41922;DHT22;27609;51.002;5.354;2023-02-28T04:06:21;0.90;99.90
41922;DHT22;27609;51.002;5.354;2023-02-28T04:08:48;1.20;99.90
41922;DHT22;27609;51.002;5.354;2023-02-28T04:11:33;0.40;99.90
41922;DHT22;27609;51.002;5.354;2023-02-28T04:14:04;0.30;99.90
41922;DHT22;27609;51.002;5.354;2023-02-28T04:16:34;0.20;99.90
41922;DHT22;27609;51.002;5.354;2023-02-28T04:19:01;0.20;99.90
41922;DHT22;27609;51.002;5.354;2023-02-28T04:21:38;0.40;99.90
41922;DHT22;27609;51.002;5.354;2023-02-28T04:24:05;-0.10;99.90
41922;DHT22;27609;51.002;5.354;2023-02-28T04:26:32;-0.10;99.90
41922;DHT22;27609;51.002;5.354;2023-02-28T04:28:59;-0.10;99.90
41922;DHT22;27609;51.002;5.354;2023-02-28T04:31:25;0.10;99.90
41922;DHT22;27609;51.002;5.354;2023-02-28T04:33:50;0.40;99.90
41922;DHT22;27609;51.002;5.354;2023-02-28T04:36:16;0.30;99.90
41922;DHT22;27609;51.002;5.354;2023-02-28T04:38:44;0.10;99.90
41922;DHT22;27609;51.002;5.354;2023-02-28T04:41:10;-0.20;99.90
41922;DHT22;27609;51.002;5.354;2023-02-28T04:43:36;-0.20;99.90
41922;DHT22;27609;51.002;5.354;2023-02-28T04:46:03;-0.30;99.90
41922;DHT22;27609;51.002;5.354;2023-02-28T04:48:31;-0.30;99.90
41922;DHT22;27609;51.002;5.354;2023-02-28T04:51:02;0.50;99.90
41922;DHT22;27609;51.002;5.354;2023-02-28T04:53:29;-0.30;99.90
41922;DHT22;27609;51.002;5.354;2023-02-28T04:55:55;-0.60;99.90
41922;DHT22;27609;51.002;5.354;2023-02-28T04:58:21;-0.40;99.90
41922;DHT22;27609;51.002;5.354;2023-02-28T05:00:49;0.00;99.90
41922;DHT22;27609;51.002;5.354;2023-02-28T05:03:15;0.20;99.90
41922;DHT22;27609;51.002;5.354;2023-02-28T05:05:41;-0.30;99.90
41922;DHT22;27609;51.002;5.354;2023-02-28T05:08:06;-0.40;99.90
41922;DHT22;27609;51.002;5.354;2023-02-28T05:10:32;0.20;99.90
41922;DHT22;27609;51.002;5.354;2023-02-28T05:12:58;-0.30;99.90
41922;DHT22;27609;51.002;5.354;2023-02-28T05:15:24;0.00;99.90
41922;DHT22;27609;51.002;5.354;2023-02-28T05:17:50;-0.10;99.90
41922;DHT22;27609;51.002;5.354;2023-02-28T05:20:16;0.00;99.90
41922;DHT22;27609;51.002;5.354;2023-02-28T05:22:42;-0.70;99.90
41922;DHT22;27609;51.002;5.354;2023-02-28T05:25:20;-0.70;99.90
41922;DHT22;27609;51.002;5.354;2023-02-28T05:27:47;0.00;99.90
41922;DHT22;27609;51.002;5.354;2023-02-28T05:30:13;-0.10;99.90
41922;DHT22;27609;51.002;5.354;2023-02-28T05:32:40;-0.70;99.90
41922;DHT22;27609;51.002;5.354;2023-02-28T05:35:11;0.10;99.90
41922;DHT22;27609;51.002;5.354;2023-02-28T05:37:38;-0.30;99.90
41922;DHT22;27609;51.002;5.354;2023-02-28T05:40:05;-0.50;99.90
41922;DHT22;27609;51.002;5.354;2023-02-28T05:42:32;-0.90;99.90
41922;DHT22;27609;51.002;5.354;2023-02-28T05:44:58;-0.30;99.90
41922;DHT22;27609;51.002;5.354;2023-02-28T05:47:24;0.00;99.90
41922;DHT22;27609;51.002;5.354;2023-02-28T05:49:50;-0.80;99.90
41922;DHT22;27609;51.002;5.354;2023-02-28T05:52:16;-0.50;99.90
41922;DHT22;27609;51.002;5.354;2023-02-28T05:54:42;-0.20;99.90
41922;DHT22;27609;51.002;5.354;2023-02-28T05:57:08;-0.80;99.90
41922;DHT22;27609;51.002;5.354;2023-02-28T05:59:33;-0.60;99.90
41922;DHT22;27609;51.002;5.354;2023-02-28T06:01:59;-0.60;99.90
41922;DHT22;27609;51.002;5.354;2023-02-28T06:04:25;-1.00;99.90
41922;DHT22;27609;51.002;5.354;2023-02-28T06:06:50;-0.60;99.90
41922;DHT22;27609;51.002;5.354;2023-02-28T06:09:17;-1.10;99.90
41922;DHT22;27609;51.002;5.354;2023-02-28T06:11:43;-1.10;99.90
41922;DHT22;27609;51.002;5.354;2023-02-28T06:14:16;-0.80;99.90
41922;DHT22;27609;51.002;5.354;2023-02-28T06:16:42;-0.60;99.90
41922;DHT22;27609;51.002;5.354;2023-02-28T06:19:09;-1.10;99.90
41922;DHT22;27609;51.002;5.354;2023-02-28T06:21:35;-0.50;99.90
41922;DHT22;27609;51.002;5.354;2023-02-28T06:24:00;-0.30;99.90
41922;DHT22;27609;51.002;5.354;2023-02-28T06:26:26;-0.30;99.90
41922;DHT22;27609;51.002;5.354;2023-02-28T06:28:52;-0.30;99.90
41922;DHT22;27609;51.002;5.354;2023-02-28T06:31:18;-0.90;99.90
41922;DHT22;27609;51.002;5.354;2023-02-28T06:33:45;-0.20;99.90
41922;DHT22;27609;51.002;5.354;2023-02-28T06:36:12;-1.00;99.90
41922;DHT22;27609;51.002;5.354;2023-02-28T06:38:39;-0.90;99.90
41922;DHT22;27609;51.002;5.354;2023-02-28T06:41:06;-0.70;99.90
41922;DHT22;27609;51.002;5.354;2023-02-28T06:43:34;-0.10;99.90
41922;DHT22;27609;51.002;5.354;2023-02-28T06:46:02;-0.10;99.90
41922;DHT22;27609;51.002;5.354;2023-02-28T06:48:28;-0.60;99.90
41922;DHT22;27609;51.002;5.354;2023-02-28T06:51:05;-0.80;99.90
41922;DHT22;27609;51.002;5.354;2023-02-28T06:53:31;-0.70;99.90
41922;DHT22;27609;51.002;5.354;2023-02-28T06:55:57;-0.40;99.90
41922;DHT22;27609;51.002;5.354;2023-02-28T06:58:23;0.00;99.90
41922;DHT22;27609;51.002;5.354;2023-02-28T07:00:51;0.60;99.90
41922;DHT22;27609;51.002;5.354;2023-02-28T07:03:18;1.50;99.90
41922;DHT22;27609;51.002;5.354;2023-02-28T07:05:44;2.10;99.90
41922;DHT22;27609;51.002;5.354;2023-02-28T07:08:11;2.90;99.90
41922;DHT22;27609;51.002;5.354;2023-02-28T07:10:37;3.50;99.90
41922;DHT22;27609;51.002;5.354;2023-02-28T07:13:04;4.10;99.90
41922;DHT22;27609;51.002;5.354;2023-02-28T07:15:30;4.80;99.90
41922;DHT22;27609;51.002;5.354;2023-02-28T07:17:56;5.50;99.90
41922;DHT22;27609;51.002;5.354;2023-02-28T07:20:23;5.70;99.90
41922;DHT22;27609;51.002;5.354;2023-02-28T07:22:49;6.30;99.90
41922;DHT22;27609;51.002;5.354;2023-02-28T07:25:22;6.50;99.90
41922;DHT22;27609;51.002;5.354;2023-02-28T07:27:48;7.00;99.90
41922;DHT22;27609;51.002;5.354;2023-02-28T07:30:14;7.10;99.90
41922;DHT22;27609;51.002;5.354;2023-02-28T07:32:40;7.80;99.90
41922;DHT22;27609;51.002;5.354;2023-02-28T07:35:06;8.30;99.90
41922;DHT22;27609;51.002;5.354;2023-02-28T07:37:32;8.70;99.90
41922;DHT22;27609;51.002;5.354;2023-02-28T07:40:06;9.20;99.90
41922;DHT22;27609;51.002;5.354;2023-02-28T07:42:34;9.00;99.90
41922;DHT22;27609;51.002;5.354;2023-02-28T07:45:01;8.80;99.90
41922;DHT22;27609;51.002;5.354;2023-02-28T07:47:26;9.00;99.90
41922;DHT22;27609;51.002;5.354;2023-02-28T07:49:54;9.30;99.90
41922;DHT22;27609;51.002;5.354;2023-02-28T07:52:19;10.00;99.90
41922;DHT22;27609;51.002;5.354;2023-02-28T07:54:45;10.70;99.90
41922;DHT22;27609;51.002;5.354;2023-02-28T07:57:10;11.40;99.80
41922;DHT22;27609;51.002;5.354;2023-02-28T07:59:36;12.10;98.20
41922;DHT22;27609;51.002;5.354;2023-02-28T08:02:02;12.40;97.20
41922;DHT22;27609;51.002;5.354;2023-02-28T08:04:28;13.10;95.60
41922;DHT22;27609;51.002;5.354;2023-02-28T08:06:56;12.70;95.30
41922;DHT22;27609;51.002;5.354;2023-02-28T08:09:22;13.40;94.60
41922;DHT22;27609;51.002;5.354;2023-02-28T08:11:48;13.60;94.10
41922;DHT22;27609;51.002;5.354;2023-02-28T08:14:13;14.00;93.70
41922;DHT22;27609;51.002;5.354;2023-02-28T08:16:39;13.70;92.90
41922;DHT22;27609;51.002;5.354;2023-02-28T08:19:05;14.00;92.30
41922;DHT22;27609;51.002;5.354;2023-02-28T08:21:30;14.20;91.80
41922;DHT22;27609;51.002;5.354;2023-02-28T08:23:56;13.80;91.80
41922;DHT22;27609;51.002;5.354;2023-02-28T08:26:22;11.70;93.20
41922;DHT22;27609;51.002;5.354;2023-02-28T08:28:48;10.20;96.00
41922;DHT22;27609;51.002;5.354;2023-02-28T08:31:15;11.70;94.60
41922;DHT22;27609;51.002;5.354;2023-02-28T08:33:42;11.70;93.80
41922;DHT22;27609;51.002;5.354;2023-02-28T08:36:09;10.50;96.20
41922;DHT22;27609;51.002;5.354;2023-02-28T08:38:36;12.30;95.00
41922;DHT22;27609;51.002;5.354;2023-02-28T08:41:04;14.10;91.80
41922;DHT22;27609;51.002;5.354;2023-02-28T08:43:33;13.30;91.10
41922;DHT22;27609;51.002;5.354;2023-02-28T08:45:59;14.40;91.60
41922;DHT22;27609;51.002;5.354;2023-02-28T08:48:29;14.50;90.60
41922;DHT22;27609;51.002;5.354;2023-02-28T08:51:01;15.00;89.80
41922;DHT22;27609;51.002;5.354;2023-02-28T08:53:27;15.90;86.50
41922;DHT22;27609;51.002;5.354;2023-02-28T08:56:01;15.10;86.10
41922;DHT22;27609;51.002;5.354;2023-02-28T08:58:27;14.90;86.70
41922;DHT22;27609;51.002;5.354;2023-02-28T09:00:53;16.40;83.30
41922;DHT22;27609;51.002;5.354;2023-02-28T09:03:20;15.90;80.40
41922;DHT22;27609;51.002;5.354;2023-02-28T09:05:58;16.00;82.20
41922;DHT22;27609;51.002;5.354;2023-02-28T09:08:24;15.70;80.30
41922;DHT22;27609;51.002;5.354;2023-02-28T09:10:51;15.90;79.20
41922;DHT22;27609;51.002;5.354;2023-02-28T09:13:18;16.40;79.10
41922;DHT22;27609;51.002;5.354;2023-02-28T09:15:43;16.50;78.00
41922;DHT22;27609;51.002;5.354;2023-02-28T09:18:09;15.50;77.50
41922;DHT22;27609;51.002;5.354;2023-02-28T09:20:38;13.50;80.70
41922;DHT22;27609;51.002;5.354;2023-02-28T09:23:05;13.40;78.60
41922;DHT22;27609;51.002;5.354;2023-02-28T09:25:31;11.30;82.90
41922;DHT22;27609;51.002;5.354;2023-02-28T09:27:56;12.10;85.00
41922;DHT22;27609;51.002;5.354;2023-02-28T09:30:22;11.60;83.50
41922;DHT22;27609;51.002;5.354;2023-02-28T09:32:48;13.70;80.90
41922;DHT22;27609;51.002;5.354;2023-02-28T09:35:24;15.30;76.20
41922;DHT22;27609;51.002;5.354;2023-02-28T09:37:51;14.40;78.70
41922;DHT22;27609;51.002;5.354;2023-02-28T09:40:22;15.30;74.20
41922;DHT22;27609;51.002;5.354;2023-02-28T09:42:52;16.50;71.40
41922;DHT22;27609;51.002;5.354;2023-02-28T09:45:32;14.40;74.50
41922;DHT22;27609;51.002;5.354;2023-02-28T09:48:14;13.30;72.30
41922;DHT22;27609;51.002;5.354;2023-02-28T09:50:59;13.80;72.50
41922;DHT22;27609;51.002;5.354;2023-02-28T09:53:31;12.50;75.10
41922;DHT22;27609;51.002;5.354;2023-02-28T09:56:05;11.80;76.10
41922;DHT22;27609;51.002;5.354;2023-02-28T09:58:41;13.10;72.60
41922;DHT22;27609;51.002;5.354;2023-02-28T10:06:51;13.80;71.30
41922;DHT22;27609;51.002;5.354;2023-02-28T10:09:24;14.70;69.60
41922;DHT22;27609;51.002;5.354;2023-02-28T10:11:53;15.50;68.90
41922;DHT22;27609;51.002;5.354;2023-02-28T10:14:24;12.60;69.80
41922;DHT22;27609;51.002;5.354;2023-02-28T10:16:55;11.20;74.40
41922;DHT22;27609;51.002;5.354;2023-02-28T10:19:30;11.30;74.90
41922;DHT22;27609;51.002;5.354;2023-02-28T10:24:45;13.50;72.00
41922;DHT22;27609;51.002;5.354;2023-02-28T10:27:16;14.50;68.90
41922;DHT22;27609;51.002;5.354;2023-02-28T10:29:47;13.40;71.80
41922;DHT22;27609;51.002;5.354;2023-02-28T10:32:17;12.80;71.80
41922;DHT22;27609;51.002;5.354;2023-02-28T10:34:43;14.50;70.00
41922;DHT22;27609;51.002;5.354;2023-02-28T10:37:11;14.80;66.90
41922;DHT22;27609;51.002;5.354;2023-02-28T10:39:43;12.90;69.20
41922;DHT22;27609;51.002;5.354;2023-02-28T10:42:24;10.40;74.00
41922;DHT22;27609;51.002;5.354;2023-02-28T10:45:24;11.30;74.80
41922;DHT22;27609;51.002;5.354;2023-02-28T10:50:34;11.50;71.50
41922;DHT22;27609;51.002;5.354;2023-02-28T10:55:44;14.60;68.10
41922;DHT22;27609;51.002;5.354;2023-02-28T10:58:24;16.00;68.20
41922;DHT22;27609;51.002;5.354;2023-02-28T11:00:51;17.00;62.40
41922;DHT22;27609;51.002;5.354;2023-02-28T11:03:29;15.00;62.50
41922;DHT22;27609;51.002;5.354;2023-02-28T11:05:55;12.80;65.80
41922;DHT22;27609;51.002;5.354;2023-02-28T11:08:21;13.10;64.50
41922;DHT22;27609;51.002;5.354;2023-02-28T11:10:54;11.70;66.70
41922;DHT22;27609;51.002;5.354;2023-02-28T11:13:21;12.40;69.00
41922;DHT22;27609;51.002;5.354;2023-02-28T11:15:53;15.20;63.90
41922;DHT22;27609;51.002;5.354;2023-02-28T11:18:41;15.10;62.90
41922;DHT22;27609;51.002;5.354;2023-02-28T11:21:09;16.90;62.00
41922;DHT22;27609;51.002;5.354;2023-02-28T11:23:37;16.70;60.80
41922;DHT22;27609;51.002;5.354;2023-02-28T11:26:05;17.20;59.20
41922;DHT22;27609;51.002;5.354;2023-02-28T11:28:41;18.20;59.80
41922;DHT22;27609;51.002;5.354;2023-02-28T11:33:48;16.80;59.50
41922;DHT22;27609;51.002;5.354;2023-02-28T11:38:44;16.00;60.60
41922;DHT22;27609;51.002;5.354;2023-02-28T11:46:43;19.30;56.90
41922;DHT22;27609;51.002;5.354;2023-02-28T11:51:53;18.60;56.00
41922;DHT22;27609;51.002;5.354;2023-02-28T12:00:06;15.50;58.10
41922;DHT22;27609;51.002;5.354;2023-02-28T12:06:09;17.40;57.60
41922;DHT22;27609;51.002;5.354;2023-02-28T12:08:22;17.90;56.00
41922;DHT22;27609;51.002;5.354;2023-02-28T12:10:53;17.30;57.20
41922;DHT22;27609;51.002;5.354;2023-02-28T12:13:26;17.90;56.70
41922;DHT22;27609;51.002;5.354;2023-02-28T12:21:43;12.60;61.30
41922;DHT22;27609;51.002;5.354;2023-02-28T12:24:33;14.10;60.20
41922;DHT22;27609;51.002;5.354;2023-02-28T12:27:05;14.50;60.20
41922;DHT22;27609;51.002;5.354;2023-02-28T12:29:48;13.30;59.60
41922;DHT22;27609;51.002;5.354;2023-02-28T12:32:23;12.00;61.90
41922;DHT22;27609;51.002;5.354;2023-02-28T12:34:55;12.40;62.50
41922;DHT22;27609;51.002;5.354;2023-02-28T12:37:29;13.30;60.30
41922;DHT22;27609;51.002;5.354;2023-02-28T12:40:02;13.60;62.80
41922;DHT22;27609;51.002;5.354;2023-02-28T12:42:36;14.80;58.90
41922;DHT22;27609;51.002;5.354;2023-02-28T12:45:16;15.20;59.70
41922;DHT22;27609;51.002;5.354;2023-02-28T12:47:44;15.50;59.10
41922;DHT22;27609;51.002;5.354;2023-02-28T12:50:12;15.00;60.90
41922;DHT22;27609;51.002;5.354;2023-02-28T12:55:43;15.50;57.50
41922;DHT22;27609;51.002;5.354;2023-02-28T12:58:31;16.10;58.10
41922;DHT22;27609;51.002;5.354;2023-02-28T13:01:41;16.20;58.20
41922;DHT22;27609;51.002;5.354;2023-02-28T13:07:20;15.70;58.70
41922;DHT22;27609;51.002;5.354;2023-02-28T13:09:54;15.70;59.40
41922;DHT22;27609;51.002;5.354;2023-02-28T13:12:21;16.20;58.00
41922;DHT22;27609;51.002;5.354;2023-02-28T13:14:49;16.40;58.40
41922;DHT22;27609;51.002;5.354;2023-02-28T13:17:23;14.80;58.50
41922;DHT22;27609;51.002;5.354;2023-02-28T13:27:50;14.50;60.40
41922;DHT22;27609;51.002;5.354;2023-02-28T13:33:30;15.30;59.10
41922;DHT22;27609;51.002;5.354;2023-02-28T13:36:09;15.70;58.50
41922;DHT22;27609;51.002;5.354;2023-02-28T13:44:17;14.40;59.80
41922;DHT22;27609;51.002;5.354;2023-02-28T13:49:27;11.60;62.20
41922;DHT22;27609;51.002;5.354;2023-02-28T14:08:35;14.90;61.80
41922;DHT22;27609;51.002;5.354;2023-02-28T14:11:08;14.60;61.20
41922;DHT22;27609;51.002;5.354;2023-02-28T14:13:45;15.30;61.20
41922;DHT22;27609;51.002;5.354;2023-02-28T14:16:17;14.90;60.60
41922;DHT22;27609;51.002;5.354;2023-02-28T14:19:24;13.70;62.30
41922;DHT22;27609;51.002;5.354;2023-02-28T14:27:37;12.30;64.80
41922;DHT22;27609;51.002;5.354;2023-02-28T14:33:25;11.80;65.10
41922;DHT22;27609;51.002;5.354;2023-02-28T14:36:24;12.30;65.10
41922;DHT22;27609;51.002;5.354;2023-02-28T14:38:52;12.00;65.50
41922;DHT22;27609;51.002;5.354;2023-02-28T14:41:32;12.50;64.40
41922;DHT22;27609;51.002;5.354;2023-02-28T14:44:02;11.50;65.20
41922;DHT22;27609;51.002;5.354;2023-02-28T14:46:39;11.40;66.40
41922;DHT22;27609;51.002;5.354;2023-02-28T14:49:06;11.70;66.80
41922;DHT22;27609;51.002;5.354;2023-02-28T14:51:38;11.60;65.00
41922;DHT22;27609;51.002;5.354;2023-02-28T14:54:03;10.70;67.40
41922;DHT22;27609;51.002;5.354;2023-02-28T14:56:36;10.40;68.00
41922;DHT22;27609;51.002;5.354;2023-02-28T14:59:02;10.10;68.60
41922;DHT22;27609;51.002;5.354;2023-02-28T15:01:29;10.80;68.00
41922;DHT22;27609;51.002;5.354;2023-02-28T15:04:04;10.50;67.70
41922;DHT22;27609;51.002;5.354;2023-02-28T15:06:30;11.10;68.50
41922;DHT22;27609;51.002;5.354;2023-02-28T15:09:17;11.20;65.80
41922;DHT22;27609;51.002;5.354;2023-02-28T15:11:47;10.70;66.70
41922;DHT22;27609;51.002;5.354;2023-02-28T15:14:19;11.20;66.80
41922;DHT22;27609;51.002;5.354;2023-02-28T15:16:48;11.40;65.10
41922;DHT22;27609;51.002;5.354;2023-02-28T15:19:23;11.90;65.00
41922;DHT22;27609;51.002;5.354;2023-02-28T15:22:04;12.40;65.30
41922;DHT22;27609;51.002;5.354;2023-02-28T15:27:00;12.00;64.90
41922;DHT22;27609;51.002;5.354;2023-02-28T15:29:29;11.50;66.40
41922;DHT22;27609;51.002;5.354;2023-02-28T15:32:07;11.40;65.80
41922;DHT22;27609;51.002;5.354;2023-02-28T15:34:42;11.00;67.70
41922;DHT22;27609;51.002;5.354;2023-02-28T15:40:26;10.40;69.40
41922;DHT22;27609;51.002;5.354;2023-02-28T15:43:04;10.50;68.80
41922;DHT22;27609;51.002;5.354;2023-02-28T15:45:44;10.10;69.10
41922;DHT22;27609;51.002;5.354;2023-02-28T15:48:24;9.80;71.20
41922;DHT22;27609;51.002;5.354;2023-02-28T15:50:55;9.60;70.10
41922;DHT22;27609;51.002;5.354;2023-02-28T15:53:25;9.10;71.00
41922;DHT22;27609;51.002;5.354;2023-02-28T15:56:15;8.90;71.70
41922;DHT22;27609;51.002;5.354;2023-02-28T15:58:43;9.00;72.30
41922;DHT22;27609;51.002;5.354;2023-02-28T16:01:36;8.60;71.40
41922;DHT22;27609;51.002;5.354;2023-02-28T16:04:18;8.40;73.20
41922;DHT22;27609;51.002;5.354;2023-02-28T16:07:06;8.40;73.70
41922;DHT22;27609;51.002;5.354;2023-02-28T16:09:30;8.30;74.80
41922;DHT22;27609;51.002;5.354;2023-02-28T16:12:00;8.10;74.50
41922;DHT22;27609;51.002;5.354;2023-02-28T16:14:31;8.00;74.50
41922;DHT22;27609;51.002;5.354;2023-02-28T16:17:03;7.80;74.30
41922;DHT22;27609;51.002;5.354;2023-02-28T16:19:29;7.70;76.20
41922;DHT22;27609;51.002;5.354;2023-02-28T16:21:54;7.70;74.70
41922;DHT22;27609;51.002;5.354;2023-02-28T16:24:20;7.60;75.50
41922;DHT22;27609;51.002;5.354;2023-02-28T16:26:47;7.50;76.10
41922;DHT22;27609;51.002;5.354;2023-02-28T16:29:23;7.20;77.20
41922;DHT22;27609;51.002;5.354;2023-02-28T16:31:50;7.30;77.40
41922;DHT22;27609;51.002;5.354;2023-02-28T16:34:15;7.30;77.10
41922;DHT22;27609;51.002;5.354;2023-02-28T16:36:41;7.30;78.00
41922;DHT22;27609;51.002;5.354;2023-02-28T16:39:07;7.20;77.50
41922;DHT22;27609;51.002;5.354;2023-02-28T16:41:33;7.20;77.90
41922;DHT22;27609;51.002;5.354;2023-02-28T16:43:59;7.10;78.50
41922;DHT22;27609;51.002;5.354;2023-02-28T16:46:34;7.50;81.30
41922;DHT22;27609;51.002;5.354;2023-02-28T16:49:00;7.00;80.10
41922;DHT22;27609;51.002;5.354;2023-02-28T16:51:25;7.00;79.50
41922;DHT22;27609;51.002;5.354;2023-02-28T16:53:51;6.80;80.50
41922;DHT22;27609;51.002;5.354;2023-02-28T16:56:22;6.80;80.40
41922;DHT22;27609;51.002;5.354;2023-02-28T16:58:49;6.70;80.20
41922;DHT22;27609;51.002;5.354;2023-02-28T17:01:17;6.70;81.60
41922;DHT22;27609;51.002;5.354;2023-02-28T17:03:48;6.80;81.30
41922;DHT22;27609;51.002;5.354;2023-02-28T17:06:25;6.70;81.40
41922;DHT22;27609;51.002;5.354;2023-02-28T17:08:53;6.60;82.80
41922;DHT22;27609;51.002;5.354;2023-02-28T17:11:20;6.50;83.80
41922;DHT22;27609;51.002;5.354;2023-02-28T17:13:47;6.40;83.70
41922;DHT22;27609;51.002;5.354;2023-02-28T17:18:53;6.30;85.50
41922;DHT22;27609;51.002;5.354;2023-02-28T17:21:18;6.30;85.00
41922;DHT22;27609;51.002;5.354;2023-02-28T17:23:44;6.30;85.20
41922;DHT22;27609;51.002;5.354;2023-02-28T17:26:13;6.10;87.40
41922;DHT22;27609;51.002;5.354;2023-02-28T17:28:39;6.00;88.40
41922;DHT22;27609;51.002;5.354;2023-02-28T17:31:05;6.00;89.10
41922;DHT22;27609;51.002;5.354;2023-02-28T17:33:30;5.80;88.80
41922;DHT22;27609;51.002;5.354;2023-02-28T17:35:56;5.70;90.30
41922;DHT22;27609;51.002;5.354;2023-02-28T17:38:22;5.60;90.30
41922;DHT22;27609;51.002;5.354;2023-02-28T17:40:48;5.60;91.20
41922;DHT22;27609;51.002;5.354;2023-02-28T17:43:13;5.50;91.20
41922;DHT22;27609;51.002;5.354;2023-02-28T17:45:40;5.30;92.30
41922;DHT22;27609;51.002;5.354;2023-02-28T17:48:08;5.30;92.40
41922;DHT22;27609;51.002;5.354;2023-02-28T17:50:34;5.20;93.20
41922;DHT22;27609;51.002;5.354;2023-02-28T17:53:00;5.10;92.50
41922;DHT22;27609;51.002;5.354;2023-02-28T17:55:26;5.00;93.10
41922;DHT22;27609;51.002;5.354;2023-02-28T17:57:51;4.90;94.20
41922;DHT22;27609;51.002;5.354;2023-02-28T18:00:17;4.90;94.30
41922;DHT22;27609;51.002;5.354;2023-02-28T18:02:43;4.80;95.30
41922;DHT22;27609;51.002;5.354;2023-02-28T18:05:10;4.60;94.90
41922;DHT22;27609;51.002;5.354;2023-02-28T18:07:37;4.60;95.60
41922;DHT22;27609;51.002;5.354;2023-02-28T18:10:05;4.60;96.70
41922;DHT22;27609;51.002;5.354;2023-02-28T18:12:30;4.40;96.90
41922;DHT22;27609;51.002;5.354;2023-02-28T18:14:56;4.30;97.70
41922;DHT22;27609;51.002;5.354;2023-02-28T18:17:22;4.20;98.30
41922;DHT22;27609;51.002;5.354;2023-02-28T18:19:48;4.10;98.60